<?xml version="1.0" encoding="UTF-8" standalone="no" ?>
<gpx xmlns="http://www.topografix.com/GPX/1/1" xmlns:xsi="http://www.w3.org/2001/XMLSchema-instance" xsi:schemaLocation="http://www.topografix.com/GPX/1/1 http://www.topografix.com/GPX/1/1/gpx.xsd" version="1.1" creator="VisuGPX - https://www.visugpx.com">
  <metadata>
    <name>Echillais_Champagne_25km</name>
    <desc><![CDATA[gnerando idor:8176453]]></desc>
  </metadata>
  <trk>
    <name><![CDATA[Echillais_Champagne_24.9km-8176453]]></name>
    <extensions>
      <line xmlns="http://www.topografix.com/GPX/gpx_style/0/2">
        <color>0000FF</color>
        <width>4</width>
      </line>
    </extensions>
    <trkseg>
      <trkpt lat="45.89969" lon="-0.95069">
        <ele>9</ele>
        <time>2023-11-01T17:02:18Z</time>
      </trkpt>
      <trkpt lat="45.89774" lon="-0.95104">
        <ele>10</ele>
        <time>2023-11-01T17:06:40Z</time>
      </trkpt>
      <trkpt lat="45.89714" lon="-0.94868">
        <ele>10</ele>
        <time>2023-11-01T17:10:34Z</time>
      </trkpt>
      <trkpt lat="45.89514" lon="-0.94619">
        <ele>10</ele>
        <time>2023-11-01T17:16:27Z</time>
      </trkpt>
      <trkpt lat="45.89332" lon="-0.94298">
        <ele>11</ele>
        <time>2023-11-01T17:22:51Z</time>
      </trkpt>
      <trkpt lat="45.89296" lon="-0.94113">
        <ele>10</ele>
        <time>2023-11-01T17:25:50Z</time>
      </trkpt>
      <trkpt lat="45.89332" lon="-0.93997">
        <ele>11</ele>
        <time>2023-11-01T17:27:48Z</time>
      </trkpt>
      <trkpt lat="45.89048" lon="-0.93444">
        <ele>5</ele>
        <time>2023-11-01T17:38:26Z</time>
      </trkpt>
      <trkpt lat="45.88863" lon="-0.93753">
        <ele>4</ele>
        <time>2023-11-01T17:44:45Z</time>
      </trkpt>
      <trkpt lat="45.88702" lon="-0.93941">
        <ele>3</ele>
        <time>2023-11-01T17:49:21Z</time>
      </trkpt>
      <trkpt lat="45.87847" lon="-0.94761">
        <ele>4</ele>
        <time>2023-11-01T18:12:13Z</time>
      </trkpt>
      <trkpt lat="45.87783" lon="-0.95473">
        <ele>4</ele>
        <time>2023-11-01T18:23:20Z</time>
      </trkpt>
      <trkpt lat="45.87755" lon="-0.9545">
        <ele>4</ele>
        <time>2023-11-01T18:24:03Z</time>
      </trkpt>
      <trkpt lat="45.87806" lon="-0.9481">
        <ele>3</ele>
        <time>2023-11-01T18:34:02Z</time>
      </trkpt>
      <trkpt lat="45.87804" lon="-0.94619">
        <ele>5</ele>
        <time>2023-11-01T18:36:59Z</time>
      </trkpt>
      <trkpt lat="45.87756" lon="-0.9457">
        <ele>9</ele>
        <time>2023-11-01T18:38:18Z</time>
      </trkpt>
      <trkpt lat="45.87701" lon="-0.94688">
        <ele>7</ele>
        <time>2023-11-01T18:40:30Z</time>
      </trkpt>
      <trkpt lat="45.87561" lon="-0.94626">
        <ele>7</ele>
        <time>2023-11-01T18:43:45Z</time>
      </trkpt>
      <trkpt lat="45.87359" lon="-0.94261">
        <ele>10</ele>
        <time>2023-11-01T18:50:58Z</time>
      </trkpt>
      <trkpt lat="45.87151" lon="-0.94439">
        <ele>6</ele>
        <time>2023-11-01T18:56:22Z</time>
      </trkpt>
      <trkpt lat="45.87054" lon="-0.94231">
        <ele>8</ele>
        <time>2023-11-01T19:00:14Z</time>
      </trkpt>
      <trkpt lat="45.86906" lon="-0.94025">
        <ele>7</ele>
        <time>2023-11-01T19:04:49Z</time>
      </trkpt>
      <trkpt lat="45.86606" lon="-0.9374">
        <ele>10</ele>
        <time>2023-11-01T19:12:49Z</time>
      </trkpt>
      <trkpt lat="45.8637" lon="-0.93345">
        <ele>14</ele>
        <time>2023-11-01T19:20:53Z</time>
      </trkpt>
      <trkpt lat="45.86152" lon="-0.93317">
        <ele>15</ele>
        <time>2023-11-01T19:25:45Z</time>
      </trkpt>
      <trkpt lat="45.85895" lon="-0.93319">
        <ele>19</ele>
        <time>2023-11-01T19:31:28Z</time>
      </trkpt>
      <trkpt lat="45.85437" lon="-0.93542">
        <ele>19</ele>
        <time>2023-11-01T19:42:13Z</time>
      </trkpt>
      <trkpt lat="45.85121" lon="-0.93549">
        <ele>15</ele>
        <time>2023-11-01T19:49:15Z</time>
      </trkpt>
      <trkpt lat="45.84808" lon="-0.93542">
        <ele>9</ele>
        <time>2023-11-01T19:56:13Z</time>
      </trkpt>
      <trkpt lat="45.8482" lon="-0.93173">
        <ele>8</ele>
        <time>2023-11-01T20:01:56Z</time>
      </trkpt>
      <trkpt lat="45.84745" lon="-0.93079">
        <ele>7</ele>
        <time>2023-11-01T20:04:09Z</time>
      </trkpt>
      <trkpt lat="45.84796" lon="-0.93034">
        <ele>10</ele>
        <time>2023-11-01T20:05:29Z</time>
      </trkpt>
      <trkpt lat="45.84472" lon="-0.92109">
        <ele>18</ele>
        <time>2023-11-01T20:21:31Z</time>
      </trkpt>
      <trkpt lat="45.84206" lon="-0.91927">
        <ele>21</ele>
        <time>2023-11-01T20:28:05Z</time>
      </trkpt>
      <trkpt lat="45.84094" lon="-0.91575">
        <ele>18</ele>
        <time>2023-11-01T20:34:04Z</time>
      </trkpt>
      <trkpt lat="45.83854" lon="-0.91281">
        <ele>12</ele>
        <time>2023-11-01T20:41:05Z</time>
      </trkpt>
      <trkpt lat="45.83566" lon="-0.90901">
        <ele>12</ele>
        <time>2023-11-01T20:49:47Z</time>
      </trkpt>
      <trkpt lat="45.83521" lon="-0.90727">
        <ele>11</ele>
        <time>2023-11-01T20:52:40Z</time>
      </trkpt>
      <trkpt lat="45.83382" lon="-0.90506">
        <ele>14</ele>
        <time>2023-11-01T20:57:17Z</time>
      </trkpt>
      <trkpt lat="45.8328" lon="-0.90437">
        <ele>10</ele>
        <time>2023-11-01T20:59:47Z</time>
      </trkpt>
      <trkpt lat="45.83357" lon="-0.90264">
        <ele>11</ele>
        <time>2023-11-01T21:02:58Z</time>
      </trkpt>
      <trkpt lat="45.83351" lon="-0.90135">
        <ele>9</ele>
        <time>2023-11-01T21:04:58Z</time>
      </trkpt>
      <trkpt lat="45.83742" lon="-0.89712">
        <ele>8</ele>
        <time>2023-11-01T21:15:52Z</time>
      </trkpt>
      <trkpt lat="45.83976" lon="-0.90025">
        <ele>7</ele>
        <time>2023-11-01T21:22:59Z</time>
      </trkpt>
      <trkpt lat="45.84022" lon="-0.90193">
        <ele>11</ele>
        <time>2023-11-01T21:25:46Z</time>
      </trkpt>
      <trkpt lat="45.84394" lon="-0.90472">
        <ele>11</ele>
        <time>2023-11-01T21:35:06Z</time>
      </trkpt>
      <trkpt lat="45.84488" lon="-0.90725">
        <ele>16</ele>
        <time>2023-11-01T21:39:33Z</time>
      </trkpt>
      <trkpt lat="45.84696" lon="-0.90935">
        <ele>12</ele>
        <time>2023-11-01T21:45:12Z</time>
      </trkpt>
      <trkpt lat="45.84813" lon="-0.91212">
        <ele>15</ele>
        <time>2023-11-01T21:50:13Z</time>
      </trkpt>
      <trkpt lat="45.84941" lon="-0.91287">
        <ele>17</ele>
        <time>2023-11-01T21:53:18Z</time>
      </trkpt>
      <trkpt lat="45.85124" lon="-0.91259">
        <ele>19</ele>
        <time>2023-11-01T21:57:24Z</time>
      </trkpt>
      <trkpt lat="45.85549" lon="-0.9112">
        <ele>18</ele>
        <time>2023-11-01T22:07:05Z</time>
      </trkpt>
      <trkpt lat="45.85853" lon="-0.90939">
        <ele>15</ele>
        <time>2023-11-01T22:14:24Z</time>
      </trkpt>
      <trkpt lat="45.86004" lon="-0.91004">
        <ele>11</ele>
        <time>2023-11-01T22:17:55Z</time>
      </trkpt>
      <trkpt lat="45.86171" lon="-0.91">
        <ele>9</ele>
        <time>2023-11-01T22:21:38Z</time>
      </trkpt>
      <trkpt lat="45.86186" lon="-0.91103">
        <ele>14</ele>
        <time>2023-11-01T22:23:15Z</time>
      </trkpt>
      <trkpt lat="45.86261" lon="-0.91088">
        <ele>11</ele>
        <time>2023-11-01T22:24:56Z</time>
      </trkpt>
      <trkpt lat="45.86419" lon="-0.90993">
        <ele>1</ele>
        <time>2023-11-01T22:28:45Z</time>
      </trkpt>
      <trkpt lat="45.86637" lon="-0.9116">
        <ele>4</ele>
        <time>2023-11-01T22:34:15Z</time>
      </trkpt>
      <trkpt lat="45.8674" lon="-0.91045">
        <ele>9</ele>
        <time>2023-11-01T22:37:09Z</time>
      </trkpt>
      <trkpt lat="45.87138" lon="-0.91034">
        <ele>9</ele>
        <time>2023-11-01T22:46:00Z</time>
      </trkpt>
      <trkpt lat="45.87501" lon="-0.91289">
        <ele>9</ele>
        <time>2023-11-01T22:54:59Z</time>
      </trkpt>
      <trkpt lat="45.87607" lon="-0.91309">
        <ele>8</ele>
        <time>2023-11-01T22:57:22Z</time>
      </trkpt>
      <trkpt lat="45.87671" lon="-0.91272">
        <ele>9</ele>
        <time>2023-11-01T22:58:54Z</time>
      </trkpt>
      <trkpt lat="45.87792" lon="-0.91281">
        <ele>7</ele>
        <time>2023-11-01T23:01:36Z</time>
      </trkpt>
      <trkpt lat="45.87865" lon="-0.91281">
        <ele>8</ele>
        <time>2023-11-01T23:03:13Z</time>
      </trkpt>
      <trkpt lat="45.87919" lon="-0.91373">
        <ele>7</ele>
        <time>2023-11-01T23:05:05Z</time>
      </trkpt>
      <trkpt lat="45.88083" lon="-0.91407">
        <ele>9</ele>
        <time>2023-11-01T23:08:46Z</time>
      </trkpt>
      <trkpt lat="45.88092" lon="-0.91255">
        <ele>8</ele>
        <time>2023-11-01T23:11:08Z</time>
      </trkpt>
      <trkpt lat="45.88236" lon="-0.91313">
        <ele>11</ele>
        <time>2023-11-01T23:14:27Z</time>
      </trkpt>
      <trkpt lat="45.88243" lon="-0.91412">
        <ele>9</ele>
        <time>2023-11-01T23:16:00Z</time>
      </trkpt>
      <trkpt lat="45.88699" lon="-0.91394">
        <ele>7</ele>
        <time>2023-11-01T23:26:09Z</time>
      </trkpt>
      <trkpt lat="45.88924" lon="-0.91551">
        <ele>8</ele>
        <time>2023-11-01T23:31:42Z</time>
      </trkpt>
      <trkpt lat="45.89059" lon="-0.91545">
        <ele>9</ele>
        <time>2023-11-01T23:34:43Z</time>
      </trkpt>
      <trkpt lat="45.89117" lon="-0.91461">
        <ele>12</ele>
        <time>2023-11-01T23:36:32Z</time>
      </trkpt>
      <trkpt lat="45.89267" lon="-0.91236">
        <ele>16</ele>
        <time>2023-11-01T23:41:22Z</time>
      </trkpt>
      <trkpt lat="45.89337" lon="-0.91347">
        <ele>10</ele>
        <time>2023-11-01T23:43:41Z</time>
      </trkpt>
      <trkpt lat="45.89434" lon="-0.91405">
        <ele>12</ele>
        <time>2023-11-01T23:46:01Z</time>
      </trkpt>
      <trkpt lat="45.89469" lon="-0.91406">
        <ele>13</ele>
        <time>2023-11-01T23:46:48Z</time>
      </trkpt>
      <trkpt lat="45.89552" lon="-0.9135">
        <ele>15</ele>
        <time>2023-11-01T23:48:50Z</time>
      </trkpt>
      <trkpt lat="45.89638" lon="-0.91385">
        <ele>16</ele>
        <time>2023-11-01T23:50:50Z</time>
      </trkpt>
      <trkpt lat="45.8969" lon="-0.91465">
        <ele>15</ele>
        <time>2023-11-01T23:52:31Z</time>
      </trkpt>
      <trkpt lat="45.89717" lon="-0.9163">
        <ele>11</ele>
        <time>2023-11-01T23:55:09Z</time>
      </trkpt>
      <trkpt lat="45.89761" lon="-0.91697">
        <ele>9</ele>
        <time>2023-11-01T23:56:34Z</time>
      </trkpt>
      <trkpt lat="45.89841" lon="-0.91705">
        <ele>9</ele>
        <time>2023-11-01T23:58:21Z</time>
      </trkpt>
      <trkpt lat="45.89728" lon="-0.91927">
        <ele>3</ele>
        <time>2023-11-02T00:02:37Z</time>
      </trkpt>
      <trkpt lat="45.89713" lon="-0.9236">
        <ele>2</ele>
        <time>2023-11-02T00:09:19Z</time>
      </trkpt>
      <trkpt lat="45.89652" lon="-0.92407">
        <ele>4</ele>
        <time>2023-11-02T00:10:52Z</time>
      </trkpt>
      <trkpt lat="45.89628" lon="-0.92474">
        <ele>6</ele>
        <time>2023-11-02T00:12:02Z</time>
      </trkpt>
      <trkpt lat="45.89679" lon="-0.92482">
        <ele>4</ele>
        <time>2023-11-02T00:13:10Z</time>
      </trkpt>
      <trkpt lat="45.89714" lon="-0.92586">
        <ele>3</ele>
        <time>2023-11-02T00:14:57Z</time>
      </trkpt>
      <trkpt lat="45.89851" lon="-0.93048">
        <ele>3</ele>
        <time>2023-11-02T00:22:44Z</time>
      </trkpt>
      <trkpt lat="45.90478" lon="-0.92878">
        <ele>2</ele>
        <time>2023-11-02T00:36:55Z</time>
      </trkpt>
      <trkpt lat="45.9056" lon="-0.93042">
        <ele>2</ele>
        <time>2023-11-02T00:40:03Z</time>
      </trkpt>
      <trkpt lat="45.90581" lon="-0.93225">
        <ele>5</ele>
        <time>2023-11-02T00:42:55Z</time>
      </trkpt>
      <trkpt lat="45.90189" lon="-0.93489">
        <ele>8</ele>
        <time>2023-11-02T00:52:33Z</time>
      </trkpt>
      <trkpt lat="45.90145" lon="-0.93712">
        <ele>8</ele>
        <time>2023-11-02T00:56:08Z</time>
      </trkpt>
      <trkpt lat="45.90158" lon="-0.94122">
        <ele>7</ele>
        <time>2023-11-02T01:02:29Z</time>
      </trkpt>
      <trkpt lat="45.90031" lon="-0.94607">
        <ele>8</ele>
        <time>2023-11-02T01:10:30Z</time>
      </trkpt>
      <trkpt lat="45.89973" lon="-0.94632">
        <ele>7</ele>
        <time>2023-11-02T01:11:51Z</time>
      </trkpt>
      <trkpt lat="45.90061" lon="-0.94973">
        <ele>9</ele>
        <time>2023-11-02T01:17:29Z</time>
      </trkpt>
      <trkpt lat="45.89974" lon="-0.95076">
        <ele>9</ele>
        <time>2023-11-02T01:19:59Z</time>
      </trkpt>
    </trkseg>
  </trk>
</gpx>